Time,TemperatureF,DewpointF,PressureIn,WindDirection,WindDirectionDegrees,WindSpeedMPH,WindSpeedGustMPH,Humidity,HourlyPrecipIn,Conditions,Clouds,dailyrainin,SoftwareType,DateUTC
2013-08-15 00:03:00,54.1,52.0,30.13,NNE,32,2.0,4.0,92,0.00,,,0.00,weatherlink.com 1.10,2013-08-15 04:03:00,
2013-08-15 00:18:00,54.1,52.0,30.13,NNE,32,0.0,0.0,92,0.00,,,0.00,weatherlink.com 1.10,2013-08-15 04:18:00,
2013-08-15 00:33:00,53.8,52.0,30.13,NNE,32,1.0,3.0,92,0.00,,,0.00,weatherlink.com 1.10,2013-08-15 04:33:00,
2013-08-15 00:48:00,53.6,51.0,30.14,NNE,32,0.0,1.0,92,0.00,,,0.00,weatherlink.com 1.10,2013-08-15 04:48:00,
2013-08-15 01:03:00,53.3,51.0,30.14,NNE,32,0.0,1.0,92,0.00,,,0.00,weatherlink.com 1.10,2013-08-15 05:03:00,
2013-08-15 01:18:00,53.0,51.0,30.14,NNE,32,0.0,0.0,93,0.00,,,0.00,weatherlink.com 1.10,2013-08-15 05:18:00,
2013-08-15 01:33:00,52.7,51.0,30.14,NNE,32,0.0,1.0,93,0.00,,,0.00,weatherlink.com 1.10,2013-08-15 05:33:00,
2013-08-15 01:48:00,52.3,50.0,30.14,NNE,32,0.0,0.0,93,0.00,,,0.00,weatherlink.com 1.10,2013-08-15 05:48:00,
2013-08-15 02:03:00,52.0,50.0,30.14,NNE,32,0.0,0.0,93,0.00,,,0.00,weatherlink.com 1.10,2013-08-15 06:03:00,
2013-08-15 02:18:00,51.7,50.0,30.14,NNE,32,0.0,0.0,94,0.00,,,0.00,weatherlink.com 1.10,2013-08-15 06:18:00,
2013-08-15 02:33:00,51.4,50.0,30.13,NNE,32,0.0,0.0,94,0.00,,,0.00,weatherlink.com 1.10,2013-08-15 06:33:00,
2013-08-15 02:48:00,51.2,50.0,30.13,NNE,32,0.0,0.0,94,0.00,,,0.00,weatherlink.com 1.10,2013-08-15 06:48:00,
2013-08-15 03:03:00,50.9,49.0,30.13,NNE,32,0.0,0.0,94,0.00,,,0.00,weatherlink.com 1.10,2013-08-15 07:03:00,
2013-08-15 03:18:00,50.8,50.0,30.13,NNE,32,0.0,0.0,95,0.00,,,0.00,weatherlink.com 1.10,2013-08-15 07:18:00,
2013-08-15 03:33:00,50.5,49.0,30.13,NNE,32,0.0,0.0,95,0.00,,,0.00,weatherlink.com 1.10,2013-08-15 07:33:00,
2013-08-15 03:48:00,50.3,49.0,30.12,NNE,32,0.0,0.0,95,0.00,,,0.00,weatherlink.com 1.10,2013-08-15 07:48:00,
2013-08-15 04:03:00,50.1,49.0,30.12,NNE,32,0.0,0.0,95,0.00,,,0.00,weatherlink.com 1.10,2013-08-15 08:03:00,
2013-08-15 04:18:00,50.0,49.0,30.12,NNE,32,0.0,0.0,95,0.00,,,0.00,weatherlink.com 1.10,2013-08-15 08:18:00,
2013-08-15 04:33:00,49.7,48.0,30.12,NNE,32,0.0,0.0,95,0.00,,,0.00,weatherlink.com 1.10,2013-08-15 08:33:00,
2013-08-15 04:48:00,49.5,48.0,30.12,NNE,32,0.0,0.0,95,0.00,,,0.00,weatherlink.com 1.10,2013-08-15 08:48:00,
2013-08-15 05:03:00,49.4,48.0,30.12,NNE,32,0.0,0.0,95,0.00,,,0.00,weatherlink.com 1.10,2013-08-15 09:03:00,
2013-08-15 05:18:00,49.2,48.0,30.12,NNE,32,0.0,0.0,96,0.00,,,0.00,weatherlink.com 1.10,2013-08-15 09:18:00,
2013-08-15 05:33:00,48.9,48.0,30.12,NNE,32,0.0,0.0,95,0.00,,,0.00,weatherlink.com 1.10,2013-08-15 09:33:00,
2013-08-15 05:48:00,48.7,48.0,30.12,NNE,32,0.0,0.0,96,0.00,,,0.00,weatherlink.com 1.10,2013-08-15 09:48:00,
2013-08-15 06:03:00,48.9,48.0,30.12,NNE,32,0.0,0.0,96,0.00,,,0.00,weatherlink.com 1.10,2013-08-15 10:03:00,
2013-08-15 06:18:00,48.8,48.0,30.12,NNE,32,0.0,0.0,96,0.00,,,0.00,weatherlink.com 1.10,2013-08-15 10:18:00,
2013-08-15 06:33:00,48.6,48.0,30.12,NNE,32,0.0,0.0,96,0.00,,,0.00,weatherlink.com 1.10,2013-08-15 10:33:00,
2013-08-15 06:49:00,48.3,47.0,30.12,NNE,32,0.0,0.0,96,0.00,,,0.00,weatherlink.com 1.10,2013-08-15 10:49:00,
2013-08-15 07:03:00,48.3,47.0,30.13,NNE,32,0.0,0.0,96,0.00,,,0.00,weatherlink.com 1.10,2013-08-15 11:03:00,
2013-08-15 07:18:00,48.3,47.0,30.13,NNE,32,0.0,0.0,96,0.00,,,0.00,weatherlink.com 1.10,2013-08-15 11:18:00,
2013-08-15 07:33:00,48.4,47.0,30.12,NNE,32,2.0,3.0,96,0.00,,,0.00,weatherlink.com 1.10,2013-08-15 11:33:00,
2013-08-15 07:48:00,49.4,49.0,30.13,NNE,32,2.0,3.0,97,0.00,,,0.00,weatherlink.com 1.10,2013-08-15 11:48:00,
2013-08-15 08:03:00,50.4,50.0,30.13,NNE,32,1.0,3.0,98,0.00,,,0.00,weatherlink.com 1.10,2013-08-15 12:03:00,
2013-08-15 08:18:00,51.2,50.0,30.13,NNE,32,1.0,3.0,97,0.00,,,0.00,weatherlink.com 1.10,2013-08-15 12:18:00,
2013-08-15 08:33:00,51.8,51.0,30.14,NNE,30,0.0,3.0,96,0.00,,,0.00,weatherlink.com 1.10,2013-08-15 12:33:00,
2013-08-15 08:48:00,52.5,52.0,30.14,NNE,30,0.0,2.0,97,0.00,,,0.00,weatherlink.com 1.10,2013-08-15 12:48:00,
2013-08-15 09:03:00,53.5,52.0,30.14,NNE,28,4.0,5.0,96,0.00,,,0.00,weatherlink.com 1.10,2013-08-15 13:03:00,
2013-08-15 09:18:00,54.6,53.0,30.14,NNE,32,2.0,5.0,93,0.00,,,0.00,weatherlink.com 1.10,2013-08-15 13:18:00,
2013-08-15 09:34:00,55.8,54.0,30.15,NNE,20,2.0,3.0,92,0.00,,,0.00,weatherlink.com 1.10,2013-08-15 13:34:00,
2013-08-15 09:49:00,57.5,54.0,30.14,NNE,22,3.0,6.0,89,0.00,,,0.00,weatherlink.com 1.10,2013-08-15 13:49:00,
2013-08-15 10:04:00,58.9,55.0,30.14,NE,36,3.0,7.0,86,0.00,,,0.00,weatherlink.com 1.10,2013-08-15 14:04:00,
2013-08-15 10:19:00,60.0,56.0,30.13,NNE,24,5.0,7.0,85,0.00,,,0.00,weatherlink.com 1.10,2013-08-15 14:19:00,
2013-08-15 10:34:00,61.3,56.0,30.14,North,360,0.0,7.0,82,0.00,,,0.00,weatherlink.com 1.10,2013-08-15 14:34:00,
2013-08-15 10:49:00,62.8,57.0,30.14,North,5,1.0,5.0,80,0.00,,,0.00,weatherlink.com 1.10,2013-08-15 14:49:00,
2013-08-15 11:04:00,64.4,57.0,30.14,NNE,21,1.0,2.0,78,0.00,,,0.00,weatherlink.com 1.10,2013-08-15 15:04:00,
2013-08-15 11:19:00,65.9,57.0,30.14,NE,50,0.0,5.0,74,0.00,,,0.00,weatherlink.com 1.10,2013-08-15 15:19:00,
2013-08-15 11:34:00,66.8,57.0,30.14,NE,45,1.0,7.0,72,0.00,,,0.00,weatherlink.com 1.10,2013-08-15 15:34:00,
2013-08-15 11:49:00,67.7,57.0,30.14,NNE,19,0.0,7.0,69,0.00,,,0.00,weatherlink.com 1.10,2013-08-15 15:49:00,
2013-08-15 12:04:00,68.1,58.0,30.14,NE,53,0.0,4.0,69,0.00,,,0.00,weatherlink.com 1.10,2013-08-15 16:04:00,
2013-08-15 12:19:00,68.8,57.0,30.14,NE,37,0.0,4.0,66,0.00,,,0.00,weatherlink.com 1.10,2013-08-15 16:19:00,
2013-08-15 12:34:00,68.8,57.0,30.13,NNE,30,0.0,9.0,66,0.00,,,0.00,weatherlink.com 1.10,2013-08-15 16:34:00,
2013-08-15 12:49:00,69.2,55.0,30.13,NNE,30,6.0,8.0,61,0.00,,,0.00,weatherlink.com 1.10,2013-08-15 16:49:00,
2013-08-15 13:04:00,69.5,57.0,30.13,NE,44,3.0,5.0,64,0.00,,,0.00,weatherlink.com 1.10,2013-08-15 17:04:00,
2013-08-15 13:19:00,69.6,56.0,30.13,NE,38,5.0,7.0,63,0.00,,,0.00,weatherlink.com 1.10,2013-08-15 17:19:00,
2013-08-15 13:34:00,70.7,55.0,30.12,NNE,29,2.0,11.0,58,0.00,,,0.00,weatherlink.com 1.10,2013-08-15 17:34:00,
2013-08-15 13:49:00,71.4,57.0,30.12,NNE,28,1.0,11.0,60,0.00,,,0.00,weatherlink.com 1.10,2013-08-15 17:49:00,
2013-08-15 14:04:00,72.1,55.0,30.11,North,5,10.0,11.0,56,0.00,,,0.00,weatherlink.com 1.10,2013-08-15 18:04:00,
2013-08-15 14:35:00,72.3,56.0,30.10,NNE,30,1.0,10.0,56,0.00,,,0.00,weatherlink.com 1.10,2013-08-15 18:35:00,
2013-08-15 14:50:00,71.7,55.0,30.10,North,355,5.0,11.0,57,0.00,,,0.00,weatherlink.com 1.10,2013-08-15 18:50:00,
2013-08-15 15:05:00,72.8,58.0,30.10,NE,40,0.0,9.0,60,0.00,,,0.00,weatherlink.com 1.10,2013-08-15 19:05:00,
2013-08-15 15:20:00,74.3,54.0,30.10,NE,35,4.0,9.0,50,0.00,,,0.00,weatherlink.com 1.10,2013-08-15 19:20:00,
2013-08-15 15:50:00,75.5,56.0,30.09,NE,36,1.0,10.0,51,0.00,,,0.00,weatherlink.com 1.10,2013-08-15 19:50:00,
2013-08-15 16:05:00,75.2,57.0,30.08,NE,47,4.0,8.0,54,0.00,,,0.00,weatherlink.com 1.10,2013-08-15 20:05:00,
2013-08-15 16:20:00,74.0,58.0,30.07,NE,44,4.0,11.0,57,0.00,,,0.00,weatherlink.com 1.10,2013-08-15 20:20:00,
2013-08-15 16:35:00,74.9,57.0,30.07,NE,38,0.0,7.0,54,0.00,,,0.00,weatherlink.com 1.10,2013-08-15 20:35:00,
2013-08-15 16:50:00,75.3,56.0,30.06,NE,40,5.0,9.0,51,0.00,,,0.00,weatherlink.com 1.10,2013-08-15 20:50:00,
2013-08-15 17:05:00,75.2,56.0,30.06,NE,53,3.0,8.0,51,0.00,,,0.00,weatherlink.com 1.10,2013-08-15 21:05:00,
2013-08-15 17:20:00,75.1,57.0,30.06,NE,43,4.0,8.0,54,0.00,,,0.00,weatherlink.com 1.10,2013-08-15 21:20:00,
2013-08-15 17:35:00,75.5,57.0,30.06,North,360,3.0,8.0,52,0.00,,,0.00,weatherlink.com 1.10,2013-08-15 21:35:00,
2013-08-15 17:50:00,75.9,59.0,30.06,NNE,19,4.0,5.0,56,0.00,,,0.00,weatherlink.com 1.10,2013-08-15 21:50:00,
2013-08-15 18:05:00,76.3,56.0,30.06,ENE,59,1.0,8.0,49,0.00,,,0.00,weatherlink.com 1.10,2013-08-15 22:05:00,
2013-08-15 18:20:00,76.2,58.0,30.06,ENE,59,0.0,6.0,53,0.00,,,0.00,weatherlink.com 1.10,2013-08-15 22:20:00,
2013-08-15 18:35:00,76.4,56.0,30.06,NNE,19,4.0,9.0,50,0.00,,,0.00,weatherlink.com 1.10,2013-08-15 22:35:00,
2013-08-15 18:50:00,76.2,57.0,30.06,NE,42,5.0,5.0,51,0.00,,,0.00,weatherlink.com 1.10,2013-08-15 22:50:00,
2013-08-15 19:05:00,75.7,57.0,30.06,NE,36,4.0,6.0,52,0.00,,,0.00,weatherlink.com 1.10,2013-08-15 23:05:00,
2013-08-15 19:20:00,74.4,57.0,30.06,NNE,26,1.0,5.0,55,0.00,,,0.00,weatherlink.com 1.10,2013-08-15 23:20:00,
2013-08-15 19:35:00,73.2,57.0,30.06,NNE,26,1.0,3.0,58,0.00,,,0.00,weatherlink.com 1.10,2013-08-15 23:35:00,
2013-08-15 19:50:00,71.3,57.0,30.06,NNE,31,1.0,4.0,61,0.00,,,0.00,weatherlink.com 1.10,2013-08-15 23:50:00,
2013-08-15 20:20:00,68.6,59.0,30.07,NNE,30,1.0,2.0,71,0.00,,,0.00,weatherlink.com 1.10,2013-08-16 00:20:00,
2013-08-15 20:35:00,66.7,59.0,30.07,NNE,30,1.0,2.0,76,0.00,,,0.00,weatherlink.com 1.10,2013-08-16 00:35:00,
2013-08-15 20:50:00,65.1,59.0,30.07,NNE,30,0.0,0.0,80,0.00,,,0.00,weatherlink.com 1.10,2013-08-16 00:50:00,
2013-08-15 21:05:00,63.6,58.0,30.08,NNE,30,0.0,0.0,82,0.00,,,0.00,weatherlink.com 1.10,2013-08-16 01:05:00,
2013-08-15 21:20:00,62.3,57.0,30.08,NNE,30,0.0,1.0,84,0.00,,,0.00,weatherlink.com 1.10,2013-08-16 01:20:00,
2013-08-15 21:50:00,60.6,57.0,30.08,NNE,30,0.0,0.0,87,0.00,,,0.00,weatherlink.com 1.10,2013-08-16 01:50:00,
2013-08-15 22:05:00,60.0,57.0,30.08,NNE,30,0.0,0.0,88,0.00,,,0.00,weatherlink.com 1.10,2013-08-16 02:05:00,
2013-08-15 22:20:00,59.6,56.0,30.09,NNE,30,0.0,0.0,89,0.00,,,0.00,weatherlink.com 1.10,2013-08-16 02:20:00,
2013-08-15 22:35:00,59.3,56.0,30.09,NNE,30,0.0,1.0,90,0.00,,,0.00,weatherlink.com 1.10,2013-08-16 02:35:00,
2013-08-15 22:50:00,59.1,56.0,30.08,NNE,30,0.0,1.0,90,0.00,,,0.00,weatherlink.com 1.10,2013-08-16 02:50:00,
2013-08-15 23:05:00,59.1,57.0,30.08,NNE,30,0.0,2.0,91,0.00,,,0.00,weatherlink.com 1.10,2013-08-16 03:05:00,
2013-08-15 23:20:00,59.0,56.0,30.09,NNE,30,0.0,1.0,91,0.00,,,0.00,weatherlink.com 1.10,2013-08-16 03:20:00,
2013-08-15 23:35:00,58.9,56.0,30.08,NNE,30,0.0,0.0,90,0.00,,,0.00,weatherlink.com 1.10,2013-08-16 03:35:00,
2013-08-15 23:50:00,58.6,56.0,30.09,NNE,30,0.0,0.0,91,0.00,,,0.00,weatherlink.com 1.10,2013-08-16 03:50:00,